This is the latest recevied weather packets stored in our database for station/object DL3CSM-13. If no packets are shown the sender has not sent any weather packets the latest 1 day(s).
| Time | Temp. | Humidity | Pressure | Rain* | Wind** | Luminosity | Snow |
|---|---|---|---|---|---|---|---|
| 1778076011 | 19.44° C | 50% | 1004.7 hPa | 0 mm | - | - | - |
| 1778073311 | 20° C | 51% | 1004.9 hPa | 0 mm | - | - | - |
| 1778063411 | 18.33° C | 54% | 1006.9 hPa | 0 mm | - | - | - |
| 1778057111 | 17.22° C | 59% | 1007 hPa | 0 mm | - | - | - |
| 1778055311 | 16.67° C | 59% | 1007.3 hPa | 0 mm | - | - | - |
| 1778052611 | 14.44° C | 68% | 1007.5 hPa | 0 mm | - | - | - |
| 1778049911 | 12.22° C | 78% | 1007.5 hPa | 0 mm | - | - | - |
| 1778048113 | 11.11° C | 85% | 1007.7 hPa | 0 mm | - | - | - |
| 1778047211 | 11.11° C | 85% | 1008 hPa | 0 mm | - | - | - |
| 1778046311 | 10.56° C | 87% | 1007.9 hPa | 0 mm | - | - | - |
| 1778044511 | 9.44° C | 88% | 1008.2 hPa | 0 mm | - | - | - |
| 1778041811 | 8.89° C | 88% | 1008 hPa | 0 mm | - | - | - |
| 1778040911 | 8.89° C | 88% | 1008.3 hPa | 0 mm | - | - | - |
| 1778040011 | 8.89° C | 87% | 1008.5 hPa | 0 mm | - | - | - |
| 1778039111 | 8.89° C | 86% | 1008.3 hPa | 0 mm | - | - | - |
| 1778037311 | 8.89° C | 86% | 1008.6 hPa | 0 mm | - | - | - |
| 1778036411 | 8.89° C | 86% | 1008.9 hPa | 0 mm | - | - | - |
| 1778034611 | 9.44° C | 85% | 1008.7 hPa | 0 mm | - | - | - |
| 1778033711 | 9.44° C | 84% | 1008.6 hPa | 0 mm | - | - | - |
| 1778031911 | 10° C | 83% | 1008.8 hPa | 0 mm | - | - | - |
* Rain latest hour (hover to see other rain measurements)
** Current wind speed in m/s (hover to see current wind gust speed)